sensor_id;sensor_type;location;lat;lon;timestamp;P1;durP1;ratioP1;P2;durP2;ratioP2
51660;SDS011;37741;49.748;8.490;2023-04-25T00:01:16;2.97;;;1.88;;
51660;SDS011;37741;49.748;8.490;2023-04-25T00:03:42;2.50;;;1.60;;
51660;SDS011;37741;49.748;8.490;2023-04-25T00:06:08;2.40;;;1.63;;
51660;SDS011;37741;49.748;8.490;2023-04-25T00:08:33;2.40;;;1.60;;
51660;SDS011;37741;49.748;8.490;2023-04-25T00:11:00;2.50;;;1.63;;
51660;SDS011;37741;49.748;8.490;2023-04-25T00:13:26;3.08;;;2.00;;
51660;SDS011;37741;49.748;8.490;2023-04-25T00:15:52;2.85;;;2.05;;
51660;SDS011;37741;49.748;8.490;2023-04-25T00:18:21;3.08;;;1.90;;
51660;SDS011;37741;49.748;8.490;2023-04-25T00:20:47;3.17;;;1.70;;
51660;SDS011;37741;49.748;8.490;2023-04-25T00:23:13;2.50;;;1.92;;
51660;SDS011;37741;49.748;8.490;2023-04-25T00:25:45;2.70;;;1.80;;
51660;SDS011;37741;49.748;8.490;2023-04-25T00:28:13;3.53;;;2.22;;
51660;SDS011;37741;49.748;8.490;2023-04-25T00:30:39;2.78;;;1.85;;
51660;SDS011;37741;49.748;8.490;2023-04-25T00:33:05;2.85;;;1.52;;
51660;SDS011;37741;49.748;8.490;2023-04-25T00:35:32;3.13;;;1.83;;
51660;SDS011;37741;49.748;8.490;2023-04-25T00:37:58;3.25;;;1.90;;
51660;SDS011;37741;49.748;8.490;2023-04-25T00:40:23;3.50;;;1.85;;
51660;SDS011;37741;49.748;8.490;2023-04-25T00:42:49;2.83;;;1.77;;
51660;SDS011;37741;49.748;8.490;2023-04-25T00:45:17;2.45;;;1.67;;
51660;SDS011;37741;49.748;8.490;2023-04-25T00:47:43;2.60;;;1.77;;
51660;SDS011;37741;49.748;8.490;2023-04-25T00:50:09;2.90;;;1.70;;
51660;SDS011;37741;49.748;8.490;2023-04-25T00:52:36;2.75;;;1.70;;
51660;SDS011;37741;49.748;8.490;2023-04-25T00:55:05;2.25;;;1.58;;
51660;SDS011;37741;49.748;8.490;2023-04-25T00:57:31;2.22;;;1.40;;
51660;SDS011;37741;49.748;8.490;2023-04-25T00:59:57;3.28;;;2.05;;
51660;SDS011;37741;49.748;8.490;2023-04-25T01:02:23;2.50;;;1.80;;
51660;SDS011;37741;49.748;8.490;2023-04-25T01:04:50;2.10;;;1.60;;
51660;SDS011;37741;49.748;8.490;2023-04-25T01:07:16;2.85;;;1.67;;
51660;SDS011;37741;49.748;8.490;2023-04-25T01:09:42;2.53;;;1.50;;
51660;SDS011;37741;49.748;8.490;2023-04-25T01:12:08;2.33;;;1.48;;
51660;SDS011;37741;49.748;8.490;2023-04-25T01:14:34;2.10;;;1.52;;
51660;SDS011;37741;49.748;8.490;2023-04-25T01:17:00;2.67;;;1.80;;
51660;SDS011;37741;49.748;8.490;2023-04-25T01:19:26;2.50;;;1.70;;
51660;SDS011;37741;49.748;8.490;2023-04-25T01:21:52;2.65;;;1.58;;
51660;SDS011;37741;49.748;8.490;2023-04-25T01:24:18;2.95;;;1.60;;
51660;SDS011;37741;49.748;8.490;2023-04-25T01:26:44;3.28;;;1.77;;
51660;SDS011;37741;49.748;8.490;2023-04-25T01:29:15;3.35;;;1.90;;
51660;SDS011;37741;49.748;8.490;2023-04-25T01:31:44;2.25;;;1.60;;
51660;SDS011;37741;49.748;8.490;2023-04-25T01:34:11;2.38;;;1.58;;
51660;SDS011;37741;49.748;8.490;2023-04-25T01:36:38;2.63;;;1.58;;
51660;SDS011;37741;49.748;8.490;2023-04-25T01:39:03;2.30;;;1.55;;
51660;SDS011;37741;49.748;8.490;2023-04-25T01:41:30;2.55;;;1.70;;
51660;SDS011;37741;49.748;8.490;2023-04-25T01:43:55;2.60;;;1.88;;
51660;SDS011;37741;49.748;8.490;2023-04-25T01:46:21;2.58;;;1.80;;
51660;SDS011;37741;49.748;8.490;2023-04-25T01:48:47;3.00;;;2.25;;
51660;SDS011;37741;49.748;8.490;2023-04-25T01:51:13;3.92;;;1.73;;
51660;SDS011;37741;49.748;8.490;2023-04-25T01:53:39;3.05;;;1.95;;
51660;SDS011;37741;49.748;8.490;2023-04-25T01:56:05;3.28;;;1.75;;
51660;SDS011;37741;49.748;8.490;2023-04-25T01:58:30;3.15;;;1.85;;
51660;SDS011;37741;49.748;8.490;2023-04-25T02:00:56;3.03;;;2.22;;
51660;SDS011;37741;49.748;8.490;2023-04-25T02:03:22;2.30;;;1.60;;
51660;SDS011;37741;49.748;8.490;2023-04-25T02:05:47;2.78;;;1.95;;
51660;SDS011;37741;49.748;8.490;2023-04-25T02:08:13;2.80;;;1.70;;
51660;SDS011;37741;49.748;8.490;2023-04-25T02:10:39;2.50;;;1.65;;
51660;SDS011;37741;49.748;8.490;2023-04-25T02:13:05;2.13;;;1.25;;
51660;SDS011;37741;49.748;8.490;2023-04-25T02:15:31;2.65;;;1.88;;
51660;SDS011;37741;49.748;8.490;2023-04-25T02:17:57;3.20;;;2.20;;
51660;SDS011;37741;49.748;8.490;2023-04-25T02:20:23;2.72;;;2.05;;
51660;SDS011;37741;49.748;8.490;2023-04-25T02:22:49;2.67;;;1.90;;
51660;SDS011;37741;49.748;8.490;2023-04-25T02:25:15;2.50;;;1.58;;
51660;SDS011;37741;49.748;8.490;2023-04-25T02:27:41;3.13;;;1.63;;
51660;SDS011;37741;49.748;8.490;2023-04-25T02:30:08;2.67;;;1.85;;
51660;SDS011;37741;49.748;8.490;2023-04-25T02:32:33;2.80;;;1.80;;
51660;SDS011;37741;49.748;8.490;2023-04-25T02:35:00;2.80;;;1.67;;
51660;SDS011;37741;49.748;8.490;2023-04-25T02:37:29;2.75;;;2.10;;
51660;SDS011;37741;49.748;8.490;2023-04-25T02:39:55;3.28;;;2.13;;
51660;SDS011;37741;49.748;8.490;2023-04-25T02:42:21;3.22;;;2.58;;
51660;SDS011;37741;49.748;8.490;2023-04-25T02:44:47;2.83;;;1.90;;
51660;SDS011;37741;49.748;8.490;2023-04-25T02:47:12;3.00;;;2.33;;
51660;SDS011;37741;49.748;8.490;2023-04-25T02:49:38;2.83;;;1.92;;
51660;SDS011;37741;49.748;8.490;2023-04-25T02:52:04;3.00;;;2.00;;
51660;SDS011;37741;49.748;8.490;2023-04-25T02:54:29;4.00;;;2.55;;
51660;SDS011;37741;49.748;8.490;2023-04-25T02:56:55;2.88;;;2.20;;
51660;SDS011;37741;49.748;8.490;2023-04-25T02:59:21;3.15;;;2.25;;
51660;SDS011;37741;49.748;8.490;2023-04-25T03:01:47;2.50;;;1.80;;
51660;SDS011;37741;49.748;8.490;2023-04-25T03:04:12;2.63;;;1.73;;
51660;SDS011;37741;49.748;8.490;2023-04-25T03:06:38;2.50;;;1.65;;
51660;SDS011;37741;49.748;8.490;2023-04-25T03:09:03;3.45;;;2.33;;
51660;SDS011;37741;49.748;8.490;2023-04-25T03:11:29;2.47;;;1.75;;
51660;SDS011;37741;49.748;8.490;2023-04-25T03:13:55;2.53;;;1.90;;
51660;SDS011;37741;49.748;8.490;2023-04-25T03:16:21;2.80;;;1.92;;
51660;SDS011;37741;49.748;8.490;2023-04-25T03:18:47;2.40;;;1.83;;
51660;SDS011;37741;49.748;8.490;2023-04-25T03:21:12;3.03;;;1.80;;
51660;SDS011;37741;49.748;8.490;2023-04-25T03:23:38;2.83;;;2.10;;
51660;SDS011;37741;49.748;8.490;2023-04-25T03:26:03;3.13;;;2.33;;
51660;SDS011;37741;49.748;8.490;2023-04-25T03:28:29;3.03;;;1.80;;
51660;SDS011;37741;49.748;8.490;2023-04-25T03:30:55;5.07;;;2.60;;
51660;SDS011;37741;49.748;8.490;2023-04-25T03:33:20;2.63;;;1.70;;
51660;SDS011;37741;49.748;8.490;2023-04-25T03:35:46;2.92;;;2.30;;
51660;SDS011;37741;49.748;8.490;2023-04-25T03:38:12;3.03;;;2.28;;
51660;SDS011;37741;49.748;8.490;2023-04-25T03:40:37;2.92;;;1.80;;
51660;SDS011;37741;49.748;8.490;2023-04-25T03:43:03;2.80;;;1.90;;
51660;SDS011;37741;49.748;8.490;2023-04-25T03:45:28;3.15;;;2.05;;
51660;SDS011;37741;49.748;8.490;2023-04-25T03:47:54;2.97;;;2.00;;
51660;SDS011;37741;49.748;8.490;2023-04-25T03:50:20;3.40;;;2.30;;
51660;SDS011;37741;49.748;8.490;2023-04-25T03:52:45;2.90;;;2.10;;
51660;SDS011;37741;49.748;8.490;2023-04-25T03:55:11;2.97;;;2.08;;
51660;SDS011;37741;49.748;8.490;2023-04-25T03:57:37;3.50;;;2.00;;
51660;SDS011;37741;49.748;8.490;2023-04-25T04:00:02;2.90;;;1.92;;
51660;SDS011;37741;49.748;8.490;2023-04-25T04:02:29;2.53;;;1.83;;
51660;SDS011;37741;49.748;8.490;2023-04-25T04:04:54;3.00;;;2.20;;
51660;SDS011;37741;49.748;8.490;2023-04-25T04:07:21;2.90;;;1.95;;
51660;SDS011;37741;49.748;8.490;2023-04-25T04:09:47;3.05;;;2.30;;
51660;SDS011;37741;49.748;8.490;2023-04-25T04:12:12;3.47;;;2.20;;
51660;SDS011;37741;49.748;8.490;2023-04-25T04:14:38;3.17;;;2.00;;
51660;SDS011;37741;49.748;8.490;2023-04-25T04:17:05;3.05;;;1.95;;
51660;SDS011;37741;49.748;8.490;2023-04-25T04:19:31;2.97;;;2.13;;
51660;SDS011;37741;49.748;8.490;2023-04-25T04:21:56;4.05;;;2.45;;
51660;SDS011;37741;49.748;8.490;2023-04-25T04:24:22;2.80;;;2.15;;
51660;SDS011;37741;49.748;8.490;2023-04-25T04:26:49;2.83;;;2.08;;
51660;SDS011;37741;49.748;8.490;2023-04-25T04:29:15;3.03;;;2.08;;
51660;SDS011;37741;49.748;8.490;2023-04-25T04:31:46;3.00;;;1.88;;
51660;SDS011;37741;49.748;8.490;2023-04-25T04:34:13;3.50;;;2.60;;
51660;SDS011;37741;49.748;8.490;2023-04-25T04:36:38;2.85;;;2.05;;
51660;SDS011;37741;49.748;8.490;2023-04-25T04:39:05;3.00;;;2.03;;
51660;SDS011;37741;49.748;8.490;2023-04-25T04:41:31;3.08;;;2.20;;
51660;SDS011;37741;49.748;8.490;2023-04-25T04:43:57;3.10;;;2.30;;
51660;SDS011;37741;49.748;8.490;2023-04-25T04:46:22;2.65;;;1.80;;
51660;SDS011;37741;49.748;8.490;2023-04-25T04:48:49;2.53;;;2.00;;
51660;SDS011;37741;49.748;8.490;2023-04-25T04:51:23;3.25;;;2.30;;
51660;SDS011;37741;49.748;8.490;2023-04-25T04:53:49;4.55;;;2.75;;
51660;SDS011;37741;49.748;8.490;2023-04-25T04:56:15;3.85;;;2.30;;
51660;SDS011;37741;49.748;8.490;2023-04-25T04:58:40;3.60;;;2.35;;
51660;SDS011;37741;49.748;8.490;2023-04-25T05:01:06;3.28;;;2.20;;
51660;SDS011;37741;49.748;8.490;2023-04-25T05:03:32;2.83;;;1.80;;
51660;SDS011;37741;49.748;8.490;2023-04-25T05:05:58;3.78;;;2.80;;
51660;SDS011;37741;49.748;8.490;2023-04-25T05:08:23;4.00;;;2.17;;
51660;SDS011;37741;49.748;8.490;2023-04-25T05:10:49;4.43;;;2.20;;
51660;SDS011;37741;49.748;8.490;2023-04-25T05:13:15;3.53;;;2.67;;
51660;SDS011;37741;49.748;8.490;2023-04-25T05:15:40;3.10;;;2.40;;
51660;SDS011;37741;49.748;8.490;2023-04-25T05:18:06;3.03;;;2.30;;
51660;SDS011;37741;49.748;8.490;2023-04-25T05:20:31;3.63;;;2.83;;
51660;SDS011;37741;49.748;8.490;2023-04-25T05:22:57;3.40;;;2.53;;
51660;SDS011;37741;49.748;8.490;2023-04-25T05:25:22;4.00;;;3.33;;
51660;SDS011;37741;49.748;8.490;2023-04-25T05:27:48;4.93;;;3.42;;
51660;SDS011;37741;49.748;8.490;2023-04-25T05:30:16;4.53;;;2.95;;
51660;SDS011;37741;49.748;8.490;2023-04-25T05:32:41;4.22;;;2.90;;
51660;SDS011;37741;49.748;8.490;2023-04-25T05:35:07;4.43;;;3.30;;
51660;SDS011;37741;49.748;8.490;2023-04-25T05:37:33;5.60;;;3.90;;
51660;SDS011;37741;49.748;8.490;2023-04-25T05:39:59;4.25;;;3.63;;
51660;SDS011;37741;49.748;8.490;2023-04-25T05:42:25;5.15;;;3.88;;
51660;SDS011;37741;49.748;8.490;2023-04-25T05:44:50;6.93;;;4.38;;
51660;SDS011;37741;49.748;8.490;2023-04-25T05:47:16;5.53;;;4.05;;
51660;SDS011;37741;49.748;8.490;2023-04-25T05:49:42;6.85;;;4.57;;
51660;SDS011;37741;49.748;8.490;2023-04-25T05:52:07;5.80;;;4.07;;
51660;SDS011;37741;49.748;8.490;2023-04-25T05:54:33;8.13;;;4.57;;
51660;SDS011;37741;49.748;8.490;2023-04-25T05:56:58;6.50;;;4.60;;
51660;SDS011;37741;49.748;8.490;2023-04-25T05:59:24;6.20;;;4.18;;
51660;SDS011;37741;49.748;8.490;2023-04-25T06:01:50;5.90;;;4.10;;
51660;SDS011;37741;49.748;8.490;2023-04-25T06:04:16;6.45;;;4.13;;
51660;SDS011;37741;49.748;8.490;2023-04-25T06:06:42;7.72;;;4.70;;
51660;SDS011;37741;49.748;8.490;2023-04-25T06:09:07;9.13;;;4.80;;
51660;SDS011;37741;49.748;8.490;2023-04-25T06:11:33;10.50;;;5.60;;
51660;SDS011;37741;49.748;8.490;2023-04-25T06:13:59;11.43;;;4.97;;
51660;SDS011;37741;49.748;8.490;2023-04-25T06:16:25;7.82;;;4.47;;
51660;SDS011;37741;49.748;8.490;2023-04-25T06:18:51;10.45;;;4.80;;
51660;SDS011;37741;49.748;8.490;2023-04-25T06:21:16;10.52;;;5.47;;
51660;SDS011;37741;49.748;8.490;2023-04-25T06:23:42;8.18;;;4.60;;
51660;SDS011;37741;49.748;8.490;2023-04-25T06:26:07;8.55;;;5.15;;
51660;SDS011;37741;49.748;8.490;2023-04-25T06:28:33;11.65;;;5.50;;
51660;SDS011;37741;49.748;8.490;2023-04-25T06:30:58;8.73;;;5.07;;
51660;SDS011;37741;49.748;8.490;2023-04-25T06:33:24;10.80;;;5.03;;
51660;SDS011;37741;49.748;8.490;2023-04-25T06:35:50;11.07;;;5.72;;
51660;SDS011;37741;49.748;8.490;2023-04-25T06:38:15;9.40;;;5.30;;
51660;SDS011;37741;49.748;8.490;2023-04-25T06:40:41;7.20;;;4.47;;
51660;SDS011;37741;49.748;8.490;2023-04-25T06:43:07;7.20;;;4.40;;
51660;SDS011;37741;49.748;8.490;2023-04-25T06:45:32;6.63;;;4.25;;
51660;SDS011;37741;49.748;8.490;2023-04-25T06:47:58;7.43;;;5.13;;
51660;SDS011;37741;49.748;8.490;2023-04-25T06:50:23;8.50;;;4.72;;
51660;SDS011;37741;49.748;8.490;2023-04-25T06:52:49;11.73;;;5.28;;
51660;SDS011;37741;49.748;8.490;2023-04-25T06:55:15;9.10;;;5.03;;
51660;SDS011;37741;49.748;8.490;2023-04-25T06:57:40;8.10;;;5.22;;
51660;SDS011;37741;49.748;8.490;2023-04-25T07:00:06;8.68;;;5.18;;
51660;SDS011;37741;49.748;8.490;2023-04-25T07:02:34;9.93;;;5.20;;
51660;SDS011;37741;49.748;8.490;2023-04-25T07:05:00;10.30;;;4.65;;
51660;SDS011;37741;49.748;8.490;2023-04-25T07:07:29;9.82;;;5.25;;
51660;SDS011;37741;49.748;8.490;2023-04-25T07:09:57;7.72;;;4.97;;
51660;SDS011;37741;49.748;8.490;2023-04-25T07:12:23;8.32;;;4.70;;
51660;SDS011;37741;49.748;8.490;2023-04-25T07:14:48;7.22;;;4.55;;
51660;SDS011;37741;49.748;8.490;2023-04-25T07:17:14;9.98;;;5.75;;
51660;SDS011;37741;49.748;8.490;2023-04-25T07:19:40;9.20;;;4.55;;
51660;SDS011;37741;49.748;8.490;2023-04-25T07:22:06;8.98;;;4.85;;
51660;SDS011;37741;49.748;8.490;2023-04-25T07:24:31;8.15;;;5.15;;
51660;SDS011;37741;49.748;8.490;2023-04-25T07:26:57;9.55;;;5.13;;
51660;SDS011;37741;49.748;8.490;2023-04-25T07:29:23;9.55;;;5.05;;
51660;SDS011;37741;49.748;8.490;2023-04-25T07:31:49;8.32;;;4.82;;
51660;SDS011;37741;49.748;8.490;2023-04-25T07:34:15;9.82;;;4.97;;
51660;SDS011;37741;49.748;8.490;2023-04-25T07:36:40;7.40;;;4.70;;
51660;SDS011;37741;49.748;8.490;2023-04-25T07:39:06;8.00;;;4.88;;
51660;SDS011;37741;49.748;8.490;2023-04-25T07:41:34;8.00;;;4.43;;
51660;SDS011;37741;49.748;8.490;2023-04-25T07:43:59;7.85;;;4.40;;
51660;SDS011;37741;49.748;8.490;2023-04-25T07:46:25;5.60;;;3.75;;
51660;SDS011;37741;49.748;8.490;2023-04-25T07:48:51;6.45;;;3.88;;
51660;SDS011;37741;49.748;8.490;2023-04-25T07:51:16;6.72;;;4.93;;
51660;SDS011;37741;49.748;8.490;2023-04-25T07:53:44;9.30;;;4.97;;
51660;SDS011;37741;49.748;8.490;2023-04-25T07:56:10;7.00;;;4.72;;
51660;SDS011;37741;49.748;8.490;2023-04-25T07:58:36;8.30;;;4.57;;
51660;SDS011;37741;49.748;8.490;2023-04-25T08:01:02;6.82;;;4.38;;
51660;SDS011;37741;49.748;8.490;2023-04-25T08:03:27;6.55;;;4.45;;
51660;SDS011;37741;49.748;8.490;2023-04-25T08:05:53;7.82;;;4.30;;
51660;SDS011;37741;49.748;8.490;2023-04-25T08:08:19;10.10;;;4.70;;
51660;SDS011;37741;49.748;8.490;2023-04-25T08:10:44;9.25;;;4.53;;
51660;SDS011;37741;49.748;8.490;2023-04-25T08:13:10;8.73;;;4.85;;
51660;SDS011;37741;49.748;8.490;2023-04-25T08:15:36;6.43;;;4.57;;
51660;SDS011;37741;49.748;8.490;2023-04-25T08:18:01;9.10;;;4.88;;
51660;SDS011;37741;49.748;8.490;2023-04-25T08:20:27;8.90;;;4.90;;
51660;SDS011;37741;49.748;8.490;2023-04-25T08:22:53;9.02;;;4.35;;
51660;SDS011;37741;49.748;8.490;2023-04-25T08:25:19;6.07;;;4.30;;
51660;SDS011;37741;49.748;8.490;2023-04-25T08:27:44;6.82;;;4.18;;
51660;SDS011;37741;49.748;8.490;2023-04-25T08:30:10;8.35;;;4.70;;
51660;SDS011;37741;49.748;8.490;2023-04-25T08:32:36;7.93;;;4.70;;
51660;SDS011;37741;49.748;8.490;2023-04-25T08:35:03;8.88;;;4.80;;
51660;SDS011;37741;49.748;8.490;2023-04-25T08:37:30;9.68;;;3.75;;
51660;SDS011;37741;49.748;8.490;2023-04-25T08:39:55;8.57;;;4.40;;
51660;SDS011;37741;49.748;8.490;2023-04-25T08:42:21;11.02;;;4.82;;
51660;SDS011;37741;49.748;8.490;2023-04-25T08:44:49;8.85;;;4.55;;
51660;SDS011;37741;49.748;8.490;2023-04-25T08:47:18;8.60;;;4.07;;
51660;SDS011;37741;49.748;8.490;2023-04-25T08:49:47;7.25;;;3.67;;
51660;SDS011;37741;49.748;8.490;2023-04-25T08:52:14;13.00;;;5.20;;
51660;SDS011;37741;49.748;8.490;2023-04-25T08:54:45;9.40;;;4.47;;
51660;SDS011;37741;49.748;8.490;2023-04-25T08:57:13;12.15;;;4.55;;
51660;SDS011;37741;49.748;8.490;2023-04-25T08:59:40;8.05;;;4.45;;
51660;SDS011;37741;49.748;8.490;2023-04-25T09:02:10;5.53;;;3.83;;
51660;SDS011;37741;49.748;8.490;2023-04-25T09:04:39;8.18;;;3.92;;
51660;SDS011;37741;49.748;8.490;2023-04-25T09:07:06;9.32;;;3.70;;
51660;SDS011;37741;49.748;8.490;2023-04-25T09:09:31;8.68;;;4.25;;
51660;SDS011;37741;49.748;8.490;2023-04-25T09:11:57;9.23;;;3.50;;
51660;SDS011;37741;49.748;8.490;2023-04-25T09:14:24;8.52;;;4.22;;
51660;SDS011;37741;49.748;8.490;2023-04-25T09:19:22;7.18;;;3.72;;
51660;SDS011;37741;49.748;8.490;2023-04-25T09:21:49;8.75;;;3.97;;
51660;SDS011;37741;49.748;8.490;2023-04-25T09:24:15;6.97;;;3.78;;
51660;SDS011;37741;49.748;8.490;2023-04-25T09:26:40;5.43;;;3.85;;
51660;SDS011;37741;49.748;8.490;2023-04-25T09:29:06;5.80;;;2.75;;
51660;SDS011;37741;49.748;8.490;2023-04-25T09:31:33;5.85;;;3.45;;
51660;SDS011;37741;49.748;8.490;2023-04-25T09:33:59;6.93;;;3.92;;
51660;SDS011;37741;49.748;8.490;2023-04-25T09:36:29;5.25;;;3.17;;
51660;SDS011;37741;49.748;8.490;2023-04-25T09:38:55;6.75;;;3.28;;
51660;SDS011;37741;49.748;8.490;2023-04-25T09:41:24;5.22;;;3.03;;
51660;SDS011;37741;49.748;8.490;2023-04-25T09:43:50;6.82;;;3.35;;
51660;SDS011;37741;49.748;8.490;2023-04-25T09:46:15;4.95;;;2.85;;
51660;SDS011;37741;49.748;8.490;2023-04-25T09:48:47;4.68;;;2.80;;
51660;SDS011;37741;49.748;8.490;2023-04-25T09:51:15;4.70;;;2.92;;
51660;SDS011;37741;49.748;8.490;2023-04-25T09:53:41;4.95;;;2.83;;
51660;SDS011;37741;49.748;8.490;2023-04-25T09:56:09;5.22;;;2.80;;
51660;SDS011;37741;49.748;8.490;2023-04-25T09:58:36;5.10;;;2.47;;
51660;SDS011;37741;49.748;8.490;2023-04-25T10:01:04;7.25;;;3.05;;
51660;SDS011;37741;49.748;8.490;2023-04-25T10:03:32;4.50;;;2.30;;
51660;SDS011;37741;49.748;8.490;2023-04-25T10:06:03;4.45;;;2.63;;
51660;SDS011;37741;49.748;8.490;2023-04-25T10:08:34;6.05;;;2.30;;
51660;SDS011;37741;49.748;8.490;2023-04-25T10:11:01;3.42;;;1.95;;
51660;SDS011;37741;49.748;8.490;2023-04-25T10:13:32;4.93;;;1.98;;
51660;SDS011;37741;49.748;8.490;2023-04-25T10:15:59;3.00;;;1.85;;
51660;SDS011;37741;49.748;8.490;2023-04-25T10:18:27;6.97;;;2.58;;
51660;SDS011;37741;49.748;8.490;2023-04-25T10:21:00;4.68;;;2.00;;
51660;SDS011;37741;49.748;8.490;2023-04-25T10:23:29;5.72;;;2.15;;
51660;SDS011;37741;49.748;8.490;2023-04-25T10:25:56;6.03;;;2.67;;
51660;SDS011;37741;49.748;8.490;2023-04-25T10:28:22;3.60;;;2.08;;
51660;SDS011;37741;49.748;8.490;2023-04-25T10:36:09;4.65;;;2.35;;
51660;SDS011;37741;49.748;8.490;2023-04-25T10:38:36;5.85;;;3.10;;
51660;SDS011;37741;49.748;8.490;2023-04-25T10:41:04;6.00;;;2.58;;
51660;SDS011;37741;49.748;8.490;2023-04-25T10:43:40;4.40;;;2.35;;
51660;SDS011;37741;49.748;8.490;2023-04-25T10:48:38;8.30;;;3.65;;
51660;SDS011;37741;49.748;8.490;2023-04-25T10:51:36;5.07;;;2.60;;
51660;SDS011;37741;49.748;8.490;2023-04-25T10:54:05;3.75;;;2.10;;
51660;SDS011;37741;49.748;8.490;2023-04-25T10:56:41;5.30;;;2.10;;
51660;SDS011;37741;49.748;8.490;2023-04-25T10:59:15;5.07;;;2.33;;
51660;SDS011;37741;49.748;8.490;2023-04-25T11:04:23;5.85;;;2.50;;
51660;SDS011;37741;49.748;8.490;2023-04-25T11:06:59;7.80;;;2.92;;
51660;SDS011;37741;49.748;8.490;2023-04-25T11:09:45;3.40;;;2.20;;
51660;SDS011;37741;49.748;8.490;2023-04-25T11:12:11;4.00;;;2.55;;
51660;SDS011;37741;49.748;8.490;2023-04-25T11:14:37;6.18;;;2.45;;
51660;SDS011;37741;49.748;8.490;2023-04-25T11:17:03;4.28;;;2.65;;
51660;SDS011;37741;49.748;8.490;2023-04-25T11:19:29;4.35;;;2.05;;
51660;SDS011;37741;49.748;8.490;2023-04-25T11:21:59;5.15;;;2.22;;
51660;SDS011;37741;49.748;8.490;2023-04-25T11:24:33;6.00;;;2.97;;
51660;SDS011;37741;49.748;8.490;2023-04-25T11:27:00;5.95;;;3.08;;
51660;SDS011;37741;49.748;8.490;2023-04-25T11:29:29;4.78;;;2.90;;
51660;SDS011;37741;49.748;8.490;2023-04-25T11:31:56;8.25;;;2.15;;
51660;SDS011;37741;49.748;8.490;2023-04-25T11:34:26;4.70;;;2.50;;
51660;SDS011;37741;49.748;8.490;2023-04-25T11:36:55;4.88;;;2.80;;
51660;SDS011;37741;49.748;8.490;2023-04-25T11:39:21;3.60;;;2.50;;
51660;SDS011;37741;49.748;8.490;2023-04-25T11:41:46;4.85;;;2.72;;
51660;SDS011;37741;49.748;8.490;2023-04-25T11:44:15;4.70;;;2.83;;
51660;SDS011;37741;49.748;8.490;2023-04-25T11:46:41;5.78;;;2.72;;
51660;SDS011;37741;49.748;8.490;2023-04-25T11:49:08;9.57;;;3.58;;
51660;SDS011;37741;49.748;8.490;2023-04-25T11:51:40;5.53;;;2.42;;
51660;SDS011;37741;49.748;8.490;2023-04-25T11:54:13;4.82;;;2.75;;
51660;SDS011;37741;49.748;8.490;2023-04-25T11:56:43;6.03;;;2.90;;
51660;SDS011;37741;49.748;8.490;2023-04-25T11:59:09;5.28;;;3.10;;
51660;SDS011;37741;49.748;8.490;2023-04-25T12:01:36;5.95;;;3.30;;
51660;SDS011;37741;49.748;8.490;2023-04-25T12:04:13;7.25;;;3.40;;
51660;SDS011;37741;49.748;8.490;2023-04-25T12:06:40;6.60;;;3.05;;
51660;SDS011;37741;49.748;8.490;2023-04-25T12:09:07;8.20;;;3.20;;
51660;SDS011;37741;49.748;8.490;2023-04-25T12:12:09;6.13;;;3.15;;
51660;SDS011;37741;49.748;8.490;2023-04-25T12:14:31;5.93;;;3.10;;
51660;SDS011;37741;49.748;8.490;2023-04-25T12:16:59;6.70;;;2.85;;
51660;SDS011;37741;49.748;8.490;2023-04-25T12:19:26;7.88;;;3.53;;
51660;SDS011;37741;49.748;8.490;2023-04-25T12:22:01;4.63;;;3.22;;
51660;SDS011;37741;49.748;8.490;2023-04-25T12:24:32;6.55;;;3.13;;
51660;SDS011;37741;49.748;8.490;2023-04-25T12:27:00;4.20;;;2.70;;
51660;SDS011;37741;49.748;8.490;2023-04-25T12:29:28;5.65;;;3.45;;
51660;SDS011;37741;49.748;8.490;2023-04-25T12:31:55;6.72;;;3.65;;
51660;SDS011;37741;49.748;8.490;2023-04-25T12:34:21;5.57;;;3.20;;
51660;SDS011;37741;49.748;8.490;2023-04-25T12:36:49;6.43;;;3.30;;
51660;SDS011;37741;49.748;8.490;2023-04-25T12:39:19;6.70;;;2.90;;
51660;SDS011;37741;49.748;8.490;2023-04-25T12:41:50;6.25;;;3.63;;
51660;SDS011;37741;49.748;8.490;2023-04-25T12:44:18;6.18;;;3.10;;
51660;SDS011;37741;49.748;8.490;2023-04-25T12:46:44;5.47;;;3.13;;
51660;SDS011;37741;49.748;8.490;2023-04-25T12:49:10;4.88;;;3.05;;
51660;SDS011;37741;49.748;8.490;2023-04-25T12:51:36;5.82;;;3.00;;
51660;SDS011;37741;49.748;8.490;2023-04-25T12:54:03;5.20;;;3.20;;
51660;SDS011;37741;49.748;8.490;2023-04-25T12:56:31;5.30;;;2.78;;
51660;SDS011;37741;49.748;8.490;2023-04-25T12:58:57;4.78;;;3.13;;
51660;SDS011;37741;49.748;8.490;2023-04-25T13:01:24;7.18;;;4.28;;
51660;SDS011;37741;49.748;8.490;2023-04-25T13:03:50;5.47;;;3.10;;
51660;SDS011;37741;49.748;8.490;2023-04-25T13:06:16;5.28;;;3.35;;
51660;SDS011;37741;49.748;8.490;2023-04-25T13:08:43;5.47;;;2.88;;
51660;SDS011;37741;49.748;8.490;2023-04-25T13:11:09;6.15;;;3.35;;
51660;SDS011;37741;49.748;8.490;2023-04-25T13:13:36;6.43;;;3.33;;
51660;SDS011;37741;49.748;8.490;2023-04-25T13:16:02;5.25;;;2.95;;
51660;SDS011;37741;49.748;8.490;2023-04-25T13:18:29;5.97;;;3.03;;
51660;SDS011;37741;49.748;8.490;2023-04-25T13:20:56;6.55;;;2.85;;
51660;SDS011;37741;49.748;8.490;2023-04-25T13:23:23;5.25;;;2.83;;
51660;SDS011;37741;49.748;8.490;2023-04-25T13:25:51;6.03;;;2.88;;
51660;SDS011;37741;49.748;8.490;2023-04-25T13:28:16;6.88;;;3.17;;
51660;SDS011;37741;49.748;8.490;2023-04-25T13:30:42;6.50;;;3.08;;
51660;SDS011;37741;49.748;8.490;2023-04-25T13:33:08;5.10;;;3.55;;
51660;SDS011;37741;49.748;8.490;2023-04-25T13:35:34;6.97;;;2.92;;
51660;SDS011;37741;49.748;8.490;2023-04-25T13:38:01;4.50;;;2.63;;
51660;SDS011;37741;49.748;8.490;2023-04-25T13:40:27;7.47;;;2.95;;
51660;SDS011;37741;49.748;8.490;2023-04-25T13:42:53;8.23;;;3.05;;
51660;SDS011;37741;49.748;8.490;2023-04-25T13:45:20;6.43;;;2.42;;
51660;SDS011;37741;49.748;8.490;2023-04-25T13:47:46;7.43;;;2.80;;
51660;SDS011;37741;49.748;8.490;2023-04-25T13:50:12;5.28;;;3.10;;
51660;SDS011;37741;49.748;8.490;2023-04-25T13:52:38;7.07;;;3.55;;
51660;SDS011;37741;49.748;8.490;2023-04-25T13:55:05;6.47;;;3.05;;
51660;SDS011;37741;49.748;8.490;2023-04-25T13:57:32;5.15;;;2.78;;
51660;SDS011;37741;49.748;8.490;2023-04-25T13:59:58;5.07;;;2.33;;
51660;SDS011;37741;49.748;8.490;2023-04-25T14:02:24;7.20;;;3.05;;
51660;SDS011;37741;49.748;8.490;2023-04-25T14:04:50;5.38;;;3.00;;
51660;SDS011;37741;49.748;8.490;2023-04-25T14:07:16;6.93;;;2.40;;
51660;SDS011;37741;49.748;8.490;2023-04-25T14:09:43;4.85;;;2.40;;
51660;SDS011;37741;49.748;8.490;2023-04-25T14:12:09;4.05;;;1.92;;
51660;SDS011;37741;49.748;8.490;2023-04-25T14:14:36;6.57;;;2.50;;
51660;SDS011;37741;49.748;8.490;2023-04-25T14:17:02;5.03;;;2.42;;
51660;SDS011;37741;49.748;8.490;2023-04-25T14:19:28;6.43;;;2.90;;
51660;SDS011;37741;49.748;8.490;2023-04-25T14:21:54;5.53;;;2.50;;
51660;SDS011;37741;49.748;8.490;2023-04-25T14:24:20;6.13;;;2.53;;
51660;SDS011;37741;49.748;8.490;2023-04-25T14:26:46;6.53;;;2.70;;
51660;SDS011;37741;49.748;8.490;2023-04-25T14:29:11;6.53;;;2.60;;
51660;SDS011;37741;49.748;8.490;2023-04-25T14:31:38;5.30;;;2.58;;
51660;SDS011;37741;49.748;8.490;2023-04-25T14:34:04;5.30;;;2.83;;
51660;SDS011;37741;49.748;8.490;2023-04-25T14:36:30;8.00;;;2.72;;
51660;SDS011;37741;49.748;8.490;2023-04-25T14:38:57;6.78;;;2.72;;
51660;SDS011;37741;49.748;8.490;2023-04-25T14:41:24;7.25;;;2.95;;
51660;SDS011;37741;49.748;8.490;2023-04-25T14:43:50;6.50;;;2.65;;
51660;SDS011;37741;49.748;8.490;2023-04-25T14:46:17;8.70;;;2.80;;
51660;SDS011;37741;49.748;8.490;2023-04-25T14:48:43;3.15;;;1.88;;
51660;SDS011;37741;49.748;8.490;2023-04-25T14:51:10;5.38;;;2.47;;
51660;SDS011;37741;49.748;8.490;2023-04-25T14:53:35;5.80;;;2.75;;
51660;SDS011;37741;49.748;8.490;2023-04-25T14:56:01;4.18;;;2.30;;
51660;SDS011;37741;49.748;8.490;2023-04-25T14:58:27;7.05;;;2.40;;